• Join FlightAware (Why Join?)
  • Login
  • US Flag 
03:01PM EDT


 

Airport Tracker/Info


-or-


 

Live Flight TrackerFlight Track Log ✈ EJA658 ✈ 27-Apr-2013 ✈ KPHF - KIAD

Flight Track Log - Related Links

Times and Time Zones

All times are in EDT time to prevent confusion due to time zone crossing. See the EJA658 flight status page for this flight to view local times or setup timezone preferences in your user account.

Time Position Orientation Groundspeed Altitude Reporting Facility
EDT Latitude Longitude Course Direction KTS MPH feet Rate Location/Type
08:51AM 37.1353 -76.4828 55° Northeast 161 185 800  Level Washington Center
08:51AM 37.1439 -76.4672 55° Northeast 184 212 1,200 1,380 Climbing Washington Center
08:52AM 37.1608 -76.4311 60° Northeast 219 252 2,000 2,580 Climbing Washington Center
08:53AM 37.2086 -76.4525 340° North 227 261 5,200 3,540 Climbing Washington Center
08:54AM 37.2225 -76.5386 281° West 217 250 9,100 3,720 Climbing Washington Center
08:55AM 37.2406 -76.6328 284° West 243 280 12,600 2,940 Climbing Washington Center
08:56AM 37.2583 -76.7375 282° West 279 321 15,100 1,680 Climbing Washington Center
08:57AM 37.2783 -76.8422 284° West 320 368 16,000 420 Climbing Washington Center
08:58AM 37.3019 -76.9653 284° West 337 388 16,000  Level Washington Center
08:59AM 37.3575 -77.0314 317° Northwest 318 366 16,000  Level Washington Center
09:00AM 37.4569 -77.0856 337° Northwest 328 377 16,000  Level Washington Center
09:01AM 37.5378 -77.1239 339° North 341 392 16,000  Level Washington Center
09:02AM 37.6269 -77.1678 339° North 341 392 16,000  Level Washington Center
09:03AM 37.7181 -77.2117 339° North 346 398 16,000  Level Washington Center
09:04AM 37.8092 -77.2556 339° North 346 398 16,000 -300 Level Washington Center
09:05AM 37.8942 -77.2994 338° Northwest 346 398 15,500 -1,020 Descending Washington Center
09:06AM 37.9831 -77.3439 338° Northwest 346 398 14,000 -1,980 Descending Washington Center
09:07AM 38.0764 -77.3933 337° Northwest 341 392 11,700 -2,040 Descending Washington Center
09:08AM 38.1633 -77.4350 339° North 335 386 10,100 -900 Descending Washington Center
09:09AM 38.2386 -77.4131 13° North 289 333 10,000 -60 Descending Washington Center
09:10AM 38.3103 -77.3700 25° Northeast 273 314 10,000 -660 Level Washington Center
09:11AM 38.3856 -77.3583 North 273 314 8,700 -1,380 Descending Washington Center
09:12AM 38.4583 -77.3628 357° North 273 314 7,300 -1,440 Descending Washington Center
09:13AM 38.5333 -77.3672 357° North 268 308 5,900 -1,200 Descending Washington Center
09:14AM 38.6064 -77.3664 North 268 308 5,000 -720 Descending Washington Center
09:15AM 38.6814 -77.3628 North 268 308 4,500 -540 Descending Washington Center
09:16AM 38.7500 -77.3500 North 265 305 4,000 -780 Descending Potomac TRACON
09:17AM 38.8333 -77.3500 360° North 254 292 3,100 -480 Descending Potomac TRACON
09:18AM 38.9000 -77.3500 360° North 264 304 3,100  Level Potomac TRACON
09:19AM 38.9833 -77.3500 360° North 262 302 3,100 -60 Level Potomac TRACON
09:19AM 39.0333 -77.3500 360° North 231 266 3,000 -480 Descending Potomac TRACON
09:21AM 39.0667 -77.3833 322° Northwest 181 208 2,200 -540 Descending Potomac TRACON
09:22AM 39.0333 -77.4333 229° Southwest 166 191 1,900 -600 Descending Potomac TRACON
09:23AM 38.9833 -77.4333 180° South 148 170 1,100 -840 Descending Potomac TRACON
09:25AM 38.9474 -77.4599 195° South  Level Estimated
09:32AM 38.9474 -77.4599 195° South  Level Estimated
09:33AM 38.9474 -77.4599 195° South  Level Estimated
09:34AM 38.9474 -77.4599 195° South  Level Estimated